createdAt,value
2023-04-12T00:00:21.200Z,89.87
2023-04-12T00:02:53.775Z,90.06
2023-04-12T00:05:22.308Z,90.28
2023-04-12T00:07:52.543Z,90.56
2023-04-12T00:10:20.343Z,90.93
2023-04-12T00:12:47.281Z,91.45
2023-04-12T00:15:14.838Z,90.84
2023-04-12T00:17:42.477Z,91.16
2023-04-12T00:20:13.064Z,91.10
2023-04-12T00:22:44.501Z,90.96
2023-04-12T00:25:12.437Z,91.20
2023-04-12T00:27:39.233Z,91.27
2023-04-12T00:30:08.686Z,91.40
2023-04-12T00:32:35.864Z,91.40
2023-04-12T00:35:02.566Z,90.89
2023-04-12T00:37:29.876Z,91.31
2023-04-12T00:39:56.607Z,91.95
2023-04-12T00:42:29.301Z,92.37
2023-04-12T00:44:56.078Z,93.51
2023-04-12T00:47:22.760Z,94.71
2023-04-12T00:49:49.614Z,96.73
2023-04-12T00:52:17.453Z,98.31
2023-04-12T00:54:51.382Z,99.93
2023-04-12T00:57:18.017Z,100.00
2023-04-12T00:59:44.721Z,100.00
2023-04-12T01:02:12.842Z,100.00
2023-04-12T01:04:43.217Z,100.00
2023-04-12T01:07:18.945Z,100.00
2023-04-12T01:10:04.645Z,100.00
2023-04-12T01:12:46.394Z,100.00
2023-04-12T01:15:14.166Z,100.00
2023-04-12T01:17:57.464Z,100.00
2023-04-12T01:20:27.049Z,100.00
2023-04-12T01:23:27.974Z,100.00
2023-04-12T01:26:32.471Z,100.00
2023-04-12T01:29:10.402Z,100.00
2023-04-12T01:31:48.915Z,100.00
2023-04-12T01:34:16.083Z,100.00
2023-04-12T01:36:43.413Z,100.00
2023-04-12T01:39:10.298Z,100.00
2023-04-12T01:41:41.584Z,100.00
2023-04-12T01:44:08.304Z,100.00
2023-04-12T01:46:36.955Z,100.00
2023-04-12T01:49:03.687Z,100.00
2023-04-12T01:52:07.630Z,100.00
2023-04-12T01:54:39.305Z,100.00
2023-04-12T01:57:07.950Z,100.00
2023-04-12T01:59:41.247Z,100.00
2023-04-12T02:02:12.819Z,100.00
2023-04-12T02:04:41.145Z,100.00
2023-04-12T02:07:08.989Z,100.00
2023-04-12T02:09:38.781Z,100.00
2023-04-12T02:12:07.000Z,100.00
2023-04-12T02:14:33.695Z,100.00
2023-04-12T02:17:07.980Z,100.00
2023-04-12T02:19:36.007Z,100.00
2023-04-12T02:22:03.889Z,100.00
2023-04-12T02:24:36.961Z,100.00
2023-04-12T02:27:04.187Z,100.00
2023-04-12T02:29:31.030Z,100.00
2023-04-12T02:31:57.814Z,100.00
2023-04-12T02:34:26.397Z,100.00
2023-04-12T02:37:04.106Z,100.00
2023-04-12T02:39:31.653Z,100.00
2023-04-12T02:41:58.748Z,100.00
2023-04-12T02:44:25.426Z,100.00
2023-04-12T02:47:08.512Z,100.00
2023-04-12T02:49:39.876Z,100.00
2023-04-12T02:52:08.258Z,100.00
2023-04-12T02:54:41.054Z,100.00
2023-04-12T02:57:11.097Z,100.00
2023-04-12T02:59:45.026Z,100.00
2023-04-12T03:02:35.827Z,100.00
2023-04-12T03:05:04.385Z,100.00
2023-04-12T03:07:41.403Z,100.00
2023-04-12T03:10:10.943Z,100.00
2023-04-12T03:12:42.233Z,100.00
2023-04-12T03:15:22.919Z,100.00
2023-04-12T03:17:50.964Z,100.00
2023-04-12T03:20:20.045Z,100.00
2023-04-12T03:22:51.755Z,100.00
2023-04-12T03:25:19.046Z,100.00
2023-04-12T03:27:55.492Z,100.00
2023-04-12T03:30:25.830Z,100.00
2023-04-12T03:32:55.146Z,100.00
2023-04-12T03:35:26.130Z,100.00
2023-04-12T03:37:53.752Z,100.00
2023-04-12T03:40:20.867Z,100.00
2023-04-12T03:42:52.520Z,100.00
2023-04-12T03:45:19.711Z,100.00
2023-04-12T03:47:50.176Z,100.00
2023-04-12T03:50:19.234Z,100.00
2023-04-12T03:52:52.524Z,100.00
2023-04-12T03:55:19.651Z,100.00
2023-04-12T03:57:48.221Z,100.00
2023-04-12T04:00:15.307Z,100.00
2023-04-12T04:03:05.175Z,100.00
2023-04-12T04:05:39.007Z,100.00
2023-04-12T04:08:08.280Z,100.00
2023-04-12T04:10:46.414Z,100.00
2023-04-12T04:13:33.269Z,100.00
2023-04-12T04:16:04.475Z,100.00
2023-04-12T04:18:32.085Z,100.00
2023-04-12T04:20:59.341Z,100.00
2023-04-12T04:23:28.551Z,100.00
2023-04-12T04:25:55.780Z,100.00
2023-04-12T04:28:24.717Z,100.00
2023-04-12T04:30:55.186Z,100.00
2023-04-12T04:33:22.875Z,100.00
2023-04-12T04:35:51.815Z,100.00
2023-04-12T04:38:32.119Z,100.00
2023-04-12T04:41:06.275Z,100.00
2023-04-12T04:44:00.020Z,100.00
2023-04-12T04:46:30.589Z,100.00
2023-04-12T04:48:59.474Z,100.00
2023-04-12T04:51:27.097Z,100.00
2023-04-12T04:53:54.643Z,100.00
2023-04-12T04:56:24.542Z,100.00
2023-04-12T04:58:57.070Z,100.00
2023-04-12T05:01:28.907Z,100.00
2023-04-12T05:04:00.268Z,100.00
2023-04-12T05:06:27.608Z,100.00
2023-04-12T05:08:56.091Z,100.00
2023-04-12T05:11:25.891Z,100.00
2023-04-12T05:13:57.365Z,100.00
2023-04-12T05:16:24.976Z,100.00
2023-04-12T05:18:57.474Z,100.00
2023-04-12T05:21:24.742Z,100.00
2023-04-12T05:23:51.600Z,100.00
2023-04-12T05:26:25.729Z,100.00
2023-04-12T05:28:54.741Z,100.00
2023-04-12T05:31:21.814Z,100.00
2023-04-12T05:33:49.026Z,100.00
2023-04-12T05:36:18.643Z,100.00
2023-04-12T05:38:46.636Z,100.00
2023-04-12T05:41:14.328Z,100.00
2023-04-12T05:43:42.686Z,100.00
2023-04-12T05:57:58.763Z,100.00
2023-04-12T06:00:27.475Z,100.00
2023-04-12T06:02:54.309Z,100.00
2023-04-12T06:05:22.303Z,100.00
2023-04-12T06:07:49.977Z,100.00
2023-04-12T06:10:16.956Z,100.00
2023-04-12T06:12:47.071Z,100.00
2023-04-12T06:15:15.430Z,100.00
2023-04-12T06:17:43.093Z,100.00
2023-04-12T06:20:13.678Z,100.00
2023-04-12T06:22:40.916Z,100.00
2023-04-12T06:25:08.143Z,100.00
2023-04-12T06:27:36.802Z,100.00
2023-04-12T06:30:03.843Z,100.00
2023-04-12T06:32:34.273Z,100.00
2023-04-12T06:35:05.479Z,100.00
2023-04-12T06:37:32.932Z,100.00
2023-04-12T06:39:59.742Z,100.00
2023-04-12T06:42:27.133Z,100.00
2023-04-12T06:44:56.274Z,100.00
2023-04-12T06:47:25.660Z,100.00
2023-04-12T06:49:55.590Z,100.00
2023-04-12T06:52:26.160Z,100.00
2023-04-12T06:54:54.492Z,100.00
2023-04-12T07:03:43.893Z,100.00
2023-04-12T07:06:24.240Z,100.00
2023-04-12T07:08:55.377Z,100.00
2023-04-12T07:11:23.467Z,100.00
2023-04-12T07:14:00.967Z,100.00
2023-04-12T07:16:31.126Z,100.00
2023-04-12T07:18:59.554Z,100.00
2023-04-12T07:21:31.829Z,100.00
2023-04-12T07:24:01.061Z,100.00
2023-04-12T07:26:28.098Z,100.00
2023-04-12T07:29:02.986Z,100.00
2023-04-12T07:31:30.243Z,100.00
2023-04-12T07:33:57.053Z,100.00
2023-04-12T07:36:24.488Z,100.00
2023-04-12T07:38:54.772Z,100.00
2023-04-12T07:41:27.062Z,100.00
2023-04-12T07:43:55.977Z,100.00
2023-04-12T07:46:22.977Z,100.00
2023-04-12T07:48:51.805Z,100.00
2023-04-12T07:51:19.307Z,100.00
2023-04-12T07:53:47.855Z,100.00
2023-04-12T07:56:16.935Z,100.00
2023-04-12T07:58:44.094Z,100.00
2023-04-12T08:01:11.650Z,100.00
2023-04-12T08:03:39.366Z,100.00
2023-04-12T08:06:07.129Z,100.00
2023-04-12T08:08:34.439Z,100.00
2023-04-12T08:11:02.580Z,100.00
2023-04-12T08:13:30.128Z,100.00
2023-04-12T08:15:57.504Z,100.00
2023-04-12T08:18:24.414Z,100.00
2023-04-12T08:20:51.462Z,100.00
2023-04-12T08:23:23.151Z,100.00
2023-04-12T08:25:51.801Z,100.00
2023-04-12T08:28:18.588Z,100.00
2023-04-12T08:30:45.723Z,100.00
2023-04-12T08:33:12.595Z,100.00
2023-04-12T08:35:42.478Z,100.00
2023-04-12T08:38:09.356Z,100.00
2023-04-12T08:40:36.760Z,100.00
2023-04-12T08:43:06.742Z,100.00
2023-04-12T08:45:34.965Z,100.00
2023-04-12T08:48:03.250Z,100.00
2023-04-12T08:50:30.286Z,100.00
2023-04-12T08:53:07.704Z,100.00
2023-04-12T08:55:35.142Z,100.00
2023-04-12T08:58:06.640Z,100.00
2023-04-12T09:00:33.644Z,100.00
2023-04-12T09:03:00.641Z,100.00
2023-04-12T09:05:29.468Z,100.00
2023-04-12T09:12:48.014Z,100.00
2023-04-12T09:15:17.051Z,100.00
2023-04-12T09:17:43.972Z,100.00
2023-04-12T09:20:16.901Z,100.00
2023-04-12T09:27:13.658Z,100.00
2023-04-12T09:29:40.832Z,100.00
2023-04-12T09:32:17.168Z,100.00
2023-04-12T09:34:57.402Z,100.00
2023-04-12T09:37:25.280Z,100.00
2023-04-12T09:40:06.146Z,100.00
2023-04-12T09:42:34.925Z,100.00
2023-04-12T09:45:19.586Z,100.00
2023-04-12T09:47:46.437Z,100.00
2023-04-12T09:50:39.575Z,100.00
2023-04-12T09:53:17.703Z,100.00
2023-04-12T09:55:50.525Z,100.00
2023-04-12T09:58:18.728Z,100.00
2023-04-12T10:00:47.263Z,100.00
2023-04-12T10:03:15.425Z,100.00
2023-04-12T10:05:42.483Z,100.00
2023-04-12T10:08:11.451Z,100.00
2023-04-12T10:10:40.463Z,100.00
2023-04-12T10:13:09.631Z,100.00
2023-04-12T10:20:09.488Z,100.00
2023-04-12T10:22:39.040Z,100.00
2023-04-12T10:25:10.250Z,100.00
2023-04-12T10:27:37.270Z,100.00
2023-04-12T10:30:30.111Z,100.00
2023-04-12T10:33:04.430Z,100.00
2023-04-12T10:35:57.398Z,100.00
2023-04-12T10:38:31.795Z,100.00
2023-04-12T10:41:18.677Z,100.00
2023-04-12T10:48:03.785Z,100.00
2023-04-12T10:50:34.738Z,100.00
2023-04-12T10:53:17.677Z,100.00
2023-04-12T10:55:44.852Z,100.00
2023-04-12T10:58:47.062Z,100.00
2023-04-12T11:06:12.704Z,100.00
2023-04-12T11:09:22.502Z,100.00
2023-04-12T11:11:49.912Z,100.00
2023-04-12T11:14:17.133Z,100.00
2023-04-12T11:17:06.352Z,100.00
2023-04-12T11:24:07.362Z,100.00
2023-04-12T11:26:34.065Z,100.00
2023-04-12T11:29:07.029Z,100.00
2023-04-12T11:31:37.429Z,100.00
2023-04-12T11:34:05.312Z,100.00
2023-04-12T11:36:32.493Z,100.00
2023-04-12T11:38:59.966Z,100.00
2023-04-12T11:41:27.309Z,100.00
2023-04-12T11:43:55.696Z,100.00
2023-04-12T11:46:22.857Z,100.00
2023-04-12T11:48:49.716Z,100.00
2023-04-12T11:51:28.756Z,100.00
2023-04-12T11:53:58.627Z,100.00
2023-04-12T11:56:26.652Z,100.00
2023-04-12T11:58:53.645Z,100.00
2023-04-12T12:01:21.454Z,100.00
2023-04-12T12:03:49.699Z,100.00
2023-04-12T12:06:16.917Z,100.00
2023-04-12T12:08:44.030Z,100.00
2023-04-12T12:11:11.047Z,100.00
2023-04-12T12:13:48.262Z,100.00
2023-04-12T12:16:15.704Z,100.00
2023-04-12T12:18:49.110Z,100.00
2023-04-12T12:21:18.686Z,100.00
2023-04-12T12:23:45.907Z,100.00
2023-04-12T12:26:25.822Z,100.00
2023-04-12T12:28:53.931Z,100.00
2023-04-12T12:31:23.244Z,100.00
2023-04-12T12:33:59.637Z,100.00
2023-04-12T12:36:34.097Z,100.00
2023-04-12T12:39:06.371Z,100.00
2023-04-12T12:41:33.526Z,100.00
2023-04-12T12:44:04.511Z,100.00
2023-04-12T12:46:50.872Z,100.00
2023-04-12T12:49:18.969Z,100.00
2023-04-12T12:51:46.172Z,100.00
2023-04-12T12:54:13.169Z,100.00
2023-04-12T12:56:46.189Z,100.00
2023-04-12T12:59:13.159Z,100.00
2023-04-12T13:01:40.044Z,100.00
2023-04-12T13:04:07.105Z,100.00
2023-04-12T13:06:36.220Z,100.00
2023-04-12T13:09:03.215Z,100.00
2023-04-12T13:11:33.241Z,100.00
2023-04-12T13:14:00.615Z,100.00
2023-04-12T13:16:28.263Z,100.00
2023-04-12T13:18:55.792Z,100.00
2023-04-12T13:21:23.475Z,100.00
2023-04-12T13:23:51.589Z,100.00
2023-04-12T13:26:18.451Z,100.00
2023-04-12T13:28:45.690Z,100.00
2023-04-12T13:31:20.155Z,100.00
2023-04-12T13:33:47.855Z,100.00
2023-04-12T13:36:15.210Z,100.00
2023-04-12T13:38:42.072Z,100.00
2023-04-12T13:41:09.080Z,100.00
2023-04-12T13:43:36.064Z,100.00
2023-04-12T13:46:04.498Z,100.00
2023-04-12T13:48:35.286Z,100.00
2023-04-12T13:51:05.870Z,100.00
2023-04-12T13:53:38.256Z,100.00
2023-04-12T13:56:07.460Z,100.00
2023-04-12T13:58:39.220Z,100.00
2023-04-12T14:01:10.769Z,100.00
2023-04-12T14:03:42.140Z,100.00
2023-04-12T14:06:12.013Z,100.00
2023-04-12T14:08:41.826Z,100.00
2023-04-12T14:11:12.532Z,100.00
2023-04-12T14:13:41.735Z,100.00
2023-04-12T14:16:11.457Z,100.00
2023-04-12T14:18:42.750Z,100.00
2023-04-12T14:21:14.230Z,100.00
2023-04-12T14:23:43.808Z,100.00
2023-04-12T14:31:06.297Z,100.00
2023-04-12T14:33:40.335Z,100.00
2023-04-12T14:36:10.281Z,100.00
2023-04-12T14:38:42.366Z,100.00
2023-04-12T14:41:14.413Z,100.00
2023-04-12T14:43:43.014Z,100.00
2023-04-12T14:54:03.089Z,100.00
2023-04-12T14:56:31.282Z,100.00
2023-04-12T14:59:05.230Z,100.00
2023-04-12T15:01:33.718Z,100.00
2023-04-12T15:04:01.025Z,100.00
2023-04-12T15:06:34.508Z,100.00
2023-04-12T15:09:05.741Z,100.00
2023-04-12T15:11:46.416Z,100.00
2023-04-12T15:14:19.768Z,100.00
2023-04-12T15:16:48.424Z,100.00
2023-04-12T15:19:20.246Z,100.00
2023-04-12T15:21:51.470Z,100.00
2023-04-12T15:24:27.700Z,100.00
2023-04-12T15:26:54.705Z,100.00
2023-04-12T15:29:26.158Z,100.00
2023-04-12T15:31:55.957Z,100.00
2023-04-12T15:34:27.898Z,100.00
2023-04-12T15:36:54.537Z,100.00
2023-04-12T15:39:27.221Z,100.00
2023-04-12T15:41:54.315Z,100.00
2023-04-12T15:44:22.136Z,100.00
2023-04-12T15:47:03.211Z,100.00
2023-04-12T15:49:38.305Z,100.00
2023-04-12T15:52:04.971Z,100.00
2023-04-12T15:54:34.880Z,100.00
2023-04-12T15:57:08.834Z,100.00
2023-04-12T15:59:40.180Z,100.00
2023-04-12T16:02:09.115Z,100.00
2023-04-12T16:04:36.438Z,100.00
2023-04-12T16:07:04.039Z,100.00
2023-04-12T16:09:32.554Z,100.00
2023-04-12T16:12:01.451Z,100.00
2023-04-12T16:14:29.630Z,100.00
2023-04-12T16:17:01.230Z,100.00
2023-04-12T16:19:28.981Z,100.00
2023-04-12T16:21:56.052Z,100.00
2023-04-12T16:24:28.260Z,100.00
2023-04-12T16:26:55.519Z,100.00
2023-04-12T16:29:23.556Z,100.00
2023-04-12T16:31:51.755Z,100.00
2023-04-12T16:34:21.501Z,100.00
2023-04-12T16:36:48.568Z,100.00
2023-04-12T16:39:16.018Z,100.00
2023-04-12T16:41:46.365Z,100.00
2023-04-12T16:44:19.538Z,100.00
2023-04-12T16:46:53.580Z,100.00
2023-04-12T16:49:21.724Z,100.00
2023-04-12T16:51:49.619Z,100.00
2023-04-12T16:54:17.225Z,100.00
2023-04-12T16:56:44.405Z,100.00
2023-04-12T16:59:11.085Z,100.00
2023-04-12T17:01:38.829Z,100.00
2023-04-12T17:04:05.821Z,100.00
2023-04-12T17:06:33.411Z,100.00
2023-04-12T17:09:05.560Z,100.00
2023-04-12T17:11:34.462Z,100.00
2023-04-12T17:14:01.543Z,100.00
2023-04-12T17:16:30.416Z,100.00
2023-04-12T17:18:59.366Z,100.00
2023-04-12T17:21:26.881Z,100.00
2023-04-12T17:23:55.610Z,100.00
2023-04-12T17:26:26.087Z,100.00
2023-04-12T17:28:54.029Z,100.00
2023-04-12T17:31:21.965Z,100.00
2023-04-12T17:33:50.384Z,100.00
2023-04-12T17:36:17.416Z,100.00
2023-04-12T17:38:44.057Z,100.00
2023-04-12T17:41:10.598Z,100.00
2023-04-12T17:43:37.495Z,100.00
2023-04-12T17:46:08.098Z,100.00
2023-04-12T17:48:35.311Z,100.00
2023-04-12T17:51:02.675Z,100.00
2023-04-12T17:53:33.184Z,100.00
2023-04-12T17:56:01.653Z,100.00
2023-04-12T17:58:29.334Z,100.00
2023-04-12T18:00:56.968Z,100.00
2023-04-12T18:03:24.537Z,100.00
2023-04-12T18:05:54.926Z,100.00
2023-04-12T18:08:27.802Z,100.00
2023-04-12T18:10:55.410Z,100.00
2023-04-12T18:13:22.859Z,100.00
2023-04-12T18:15:49.612Z,100.00
2023-04-12T18:18:18.336Z,100.00
2023-04-12T18:20:45.561Z,100.00
2023-04-12T18:23:12.205Z,100.00
2023-04-12T18:25:40.036Z,100.00
2023-04-12T18:28:07.621Z,100.00
2023-04-12T18:30:34.452Z,100.00
2023-04-12T18:33:03.636Z,100.00
2023-04-12T18:35:31.463Z,100.00
2023-04-12T18:37:58.600Z,100.00
2023-04-12T18:40:25.415Z,100.00
2023-04-12T18:42:52.228Z,100.00
2023-04-12T18:45:19.418Z,100.00
2023-04-12T18:47:47.241Z,100.00
2023-04-12T18:50:14.177Z,100.00
2023-04-12T18:52:41.301Z,100.00
2023-04-12T18:55:09.449Z,100.00
2023-04-12T18:57:36.986Z,100.00
2023-04-12T19:00:13.975Z,100.00
2023-04-12T19:02:42.368Z,100.00
2023-04-12T19:05:11.079Z,100.00
2023-04-12T19:07:38.297Z,100.00
2023-04-12T19:10:05.373Z,100.00
2023-04-12T19:12:34.784Z,100.00
2023-04-12T19:15:01.903Z,100.00
2023-04-12T19:17:29.871Z,100.00
2023-04-12T19:19:57.983Z,100.00
2023-04-12T19:22:27.272Z,100.00
2023-04-12T19:24:54.061Z,100.00
2023-04-12T19:27:22.227Z,100.00
2023-04-12T19:29:50.847Z,100.00
2023-04-12T19:32:18.280Z,100.00
2023-04-12T19:34:46.271Z,100.00
2023-04-12T19:37:12.951Z,100.00
2023-04-12T19:39:40.609Z,100.00
2023-04-12T19:42:07.354Z,100.00
2023-04-12T19:44:34.012Z,100.00
2023-04-12T19:47:01.062Z,100.00
2023-04-12T19:49:28.264Z,100.00
2023-04-12T19:51:55.811Z,100.00
2023-04-12T19:54:23.235Z,100.00
2023-04-12T19:56:52.824Z,100.00
2023-04-12T19:59:20.401Z,100.00
2023-04-12T20:01:47.577Z,100.00
2023-04-12T20:04:19.545Z,100.00
2023-04-12T20:06:49.004Z,100.00
2023-04-12T20:09:16.671Z,100.00
2023-04-12T20:11:43.450Z,100.00
2023-04-12T20:14:10.961Z,100.00
2023-04-12T20:16:40.957Z,100.00
2023-04-12T20:19:07.734Z,100.00
2023-04-12T20:21:35.464Z,100.00
2023-04-12T20:24:02.156Z,100.00
2023-04-12T20:26:31.906Z,100.00
2023-04-12T20:29:00.024Z,100.00
2023-04-12T20:31:26.935Z,100.00
2023-04-12T20:33:56.724Z,100.00
2023-04-12T20:36:25.802Z,100.00
2023-04-12T20:38:53.112Z,100.00
2023-04-12T20:41:19.737Z,100.00
2023-04-12T20:43:47.197Z,100.00
2023-04-12T20:46:25.079Z,100.00
2023-04-12T20:48:55.686Z,100.00
2023-04-12T20:51:22.525Z,100.00
2023-04-12T20:53:51.079Z,100.00
2023-04-12T20:56:20.273Z,100.00
2023-04-12T20:58:49.253Z,100.00
2023-04-12T21:01:16.440Z,100.00
2023-04-12T21:03:43.985Z,100.00
2023-04-12T21:06:11.063Z,100.00
2023-04-12T21:08:38.228Z,100.00
2023-04-12T21:11:05.552Z,100.00
2023-04-12T21:13:33.761Z,100.00
2023-04-12T21:16:02.600Z,100.00
2023-04-12T21:18:33.637Z,100.00
2023-04-12T21:21:00.619Z,100.00
2023-04-12T21:23:30.085Z,100.00
2023-04-12T21:25:57.530Z,100.00
2023-04-12T21:28:24.371Z,100.00
2023-04-12T21:30:54.465Z,100.00
2023-04-12T21:33:25.611Z,100.00
2023-04-12T21:35:53.882Z,100.00
2023-04-12T21:38:21.809Z,100.00
2023-04-12T21:40:48.655Z,100.00
2023-04-12T21:43:15.751Z,100.00
2023-04-12T21:45:42.841Z,100.00
2023-04-12T21:48:09.526Z,100.00
2023-04-12T21:50:37.537Z,100.00
2023-04-12T21:53:04.329Z,100.00
2023-04-12T21:55:32.303Z,100.00
2023-04-12T21:57:58.876Z,100.00
2023-04-12T22:00:27.732Z,100.00
2023-04-12T22:02:54.885Z,100.00
2023-04-12T22:05:21.882Z,100.00
2023-04-12T22:07:49.726Z,100.00
2023-04-12T22:10:18.197Z,100.00
2023-04-12T22:12:49.653Z,100.00
2023-04-12T22:15:19.885Z,100.00
2023-04-12T22:17:47.948Z,100.00
2023-04-12T22:20:20.457Z,100.00
2023-04-12T22:22:50.308Z,100.00
2023-04-12T22:25:17.949Z,100.00
2023-04-12T22:27:45.841Z,100.00
2023-04-12T22:30:14.188Z,100.00
2023-04-12T22:32:41.118Z,100.00
2023-04-12T22:35:09.456Z,100.00
2023-04-12T22:37:41.519Z,100.00
2023-04-12T22:40:12.902Z,100.00
2023-04-12T22:42:45.454Z,100.00
2023-04-12T22:45:15.879Z,100.00
2023-04-12T22:47:45.704Z,100.00
2023-04-12T22:50:16.149Z,100.00
2023-04-12T22:52:42.838Z,100.00
2023-04-12T22:55:12.156Z,100.00
2023-04-12T22:57:44.395Z,100.00
2023-04-12T23:00:13.454Z,100.00
2023-04-12T23:02:43.384Z,100.00
2023-04-12T23:05:11.357Z,100.00
2023-04-12T23:07:40.762Z,100.00
2023-04-12T23:10:08.462Z,100.00
2023-04-12T23:12:36.595Z,100.00
2023-04-12T23:15:06.740Z,100.00
2023-04-12T23:17:33.907Z,100.00
2023-04-12T23:20:01.128Z,100.00
2023-04-12T23:22:54.994Z,100.00
2023-04-12T23:25:38.563Z,100.00
2023-04-12T23:28:13.716Z,100.00
2023-04-12T23:30:48.146Z,100.00
2023-04-12T23:33:20.305Z,100.00
2023-04-12T23:35:48.860Z,100.00
2023-04-12T23:38:26.536Z,100.00
2023-04-12T23:40:53.433Z,100.00
2023-04-12T23:43:20.988Z,100.00
2023-04-12T23:45:47.748Z,100.00
2023-04-12T23:48:15.777Z,100.00
2023-04-12T23:50:45.127Z,100.00
2023-04-12T23:53:12.248Z,100.00
2023-04-12T23:55:41.303Z,100.00
2023-04-12T23:58:08.599Z,100.00
